createdAt,value
2018-12-12T00:01:18.378Z,0.67
2018-12-12T00:08:53.652Z,0.70
2018-12-12T00:11:25.813Z,0.70
2018-12-12T00:24:05.740Z,0.73
2018-12-12T00:26:37.962Z,0.50
2018-12-12T00:29:09.973Z,0.73
2018-12-12T00:31:40.014Z,0.60
2018-12-12T00:34:12.269Z,0.87
2018-12-12T00:36:44.643Z,0.50
2018-12-12T00:39:17.350Z,0.40
2018-12-12T00:41:51.391Z,0.57
2018-12-12T00:44:23.325Z,0.50
2018-12-12T00:46:53.900Z,0.50
2018-12-12T00:49:25.821Z,0.60
2018-12-12T00:51:58.024Z,0.40
2018-12-12T00:54:30.225Z,0.50
2018-12-12T00:57:02.973Z,0.83
2018-12-12T00:59:35.411Z,0.80
2018-12-12T01:02:07.870Z,0.60
2018-12-12T01:04:40.131Z,0.70
2018-12-12T01:07:12.656Z,0.70
2018-12-12T01:09:44.577Z,0.50
2018-12-12T01:12:17.175Z,0.60
2018-12-12T01:14:49.707Z,0.60
2018-12-12T01:17:21.935Z,0.67
2018-12-12T01:19:53.646Z,0.40
2018-12-12T01:22:25.783Z,0.60
2018-12-12T01:27:30.386Z,0.63
2018-12-12T01:37:38.117Z,0.43
2018-12-12T01:40:10.215Z,0.53
2018-12-12T01:42:42.279Z,0.30
2018-12-12T01:45:14.586Z,0.63
2018-12-12T01:47:46.929Z,0.60
2018-12-12T01:50:18.933Z,0.40
2018-12-12T01:52:51.061Z,0.70
2018-12-12T01:55:23.235Z,1.00
2018-12-12T01:57:55.319Z,0.60
2018-12-12T02:00:27.485Z,0.57
2018-12-12T02:02:59.818Z,0.50
2018-12-12T02:05:32.093Z,0.60
2018-12-12T02:08:04.317Z,0.50
2018-12-12T02:10:36.718Z,0.60
2018-12-12T02:13:20.277Z,0.70
2018-12-12T02:15:52.862Z,1.10
2018-12-12T02:18:24.904Z,0.93
2018-12-12T02:20:57.196Z,0.80
2018-12-12T02:23:29.394Z,0.80
2018-12-12T02:26:01.952Z,1.73
2018-12-12T02:28:34.042Z,0.90
2018-12-12T02:31:06.159Z,0.70
2018-12-12T02:33:39.336Z,0.80
2018-12-12T02:36:11.950Z,0.77
2018-12-12T02:46:21.863Z,0.90
2018-12-12T02:48:54.066Z,0.67
2018-12-12T02:51:26.190Z,0.60
2018-12-12T02:53:58.463Z,1.23
2018-12-12T02:56:30.553Z,0.77
2018-12-12T02:59:02.624Z,0.57
2018-12-12T03:01:34.714Z,0.53
2018-12-12T03:04:06.812Z,0.87
2018-12-12T03:06:38.874Z,0.40
2018-12-12T03:09:11.066Z,1.00
2018-12-12T03:11:43.126Z,0.60
2018-12-12T03:14:16.087Z,0.77
2018-12-12T03:16:48.572Z,1.00
2018-12-12T03:19:22.906Z,0.57
2018-12-12T03:21:55.288Z,0.50
2018-12-12T03:24:27.423Z,0.50
2018-12-12T03:26:59.554Z,0.60
2018-12-12T03:29:31.940Z,0.70
2018-12-12T03:32:04.337Z,0.80
2018-12-12T03:34:36.339Z,0.60
2018-12-12T03:37:08.475Z,0.83
2018-12-12T03:39:42.769Z,0.50
2018-12-12T03:42:17.040Z,0.60
2018-12-12T03:44:49.544Z,0.63
2018-12-12T03:47:21.893Z,0.50
2018-12-12T03:49:56.141Z,0.40
2018-12-12T03:52:28.628Z,0.93
2018-12-12T03:55:00.783Z,1.03
2018-12-12T03:57:32.945Z,0.43
2018-12-12T04:00:05.814Z,0.67
2018-12-12T04:02:38.319Z,0.77
2018-12-12T04:05:08.517Z,0.60
2018-12-12T04:07:40.721Z,0.50
2018-12-12T04:10:12.971Z,0.50
2018-12-12T04:12:45.364Z,0.40
2018-12-12T04:15:17.574Z,0.40
2018-12-12T04:17:52.055Z,0.60
2018-12-12T04:20:24.654Z,0.60
2018-12-12T04:22:59.368Z,0.70
2018-12-12T04:25:31.119Z,0.77
2018-12-12T04:28:03.209Z,0.40
2018-12-12T04:30:35.387Z,0.80
2018-12-12T04:33:07.480Z,0.60
2018-12-12T04:35:39.700Z,0.80
2018-12-12T04:38:12.154Z,0.40
2018-12-12T04:40:44.411Z,0.40
2018-12-12T04:43:16.405Z,0.53
2018-12-12T04:45:48.624Z,0.57
2018-12-12T04:48:20.810Z,0.97
2018-12-12T04:50:52.885Z,0.60
2018-12-12T04:53:25.207Z,0.87
2018-12-12T04:55:57.053Z,0.40
2018-12-12T04:58:29.248Z,0.60
2018-12-12T05:01:01.093Z,0.30
2018-12-12T05:03:33.441Z,0.57
2018-12-12T05:06:05.547Z,0.40
2018-12-12T05:08:37.766Z,0.60
2018-12-12T05:11:09.697Z,0.50
2018-12-12T05:13:39.920Z,0.60
2018-12-12T05:16:12.251Z,0.87
2018-12-12T05:18:44.369Z,0.60
2018-12-12T05:21:16.838Z,0.40
2018-12-12T05:23:49.180Z,0.40
2018-12-12T05:26:21.561Z,0.60
2018-12-12T05:28:53.793Z,0.80
2018-12-12T05:31:25.763Z,0.50
2018-12-12T05:33:58.040Z,0.70
2018-12-12T05:36:30.055Z,0.73
2018-12-12T05:39:03.188Z,0.87
2018-12-12T05:41:35.487Z,0.60
2018-12-12T05:44:07.907Z,0.50
2018-12-12T05:46:42.018Z,0.67
2018-12-12T05:49:14.497Z,0.53
2018-12-12T05:51:46.464Z,0.60
2018-12-12T05:54:18.649Z,0.70
2018-12-12T05:56:52.450Z,1.07
2018-12-12T05:59:24.917Z,1.13
2018-12-12T06:01:57.167Z,0.80
2018-12-12T06:04:29.350Z,1.00
2018-12-12T06:07:01.459Z,0.50
2018-12-12T06:09:33.870Z,0.50
2018-12-12T06:12:05.929Z,0.83
2018-12-12T06:14:38.607Z,1.07
2018-12-12T06:17:09.261Z,0.63
2018-12-12T06:19:42.089Z,0.40
2018-12-12T06:22:14.432Z,0.50
2018-12-12T06:24:46.651Z,0.97
2018-12-12T06:27:18.774Z,0.70
2018-12-12T06:29:51.091Z,1.47
2018-12-12T06:32:23.313Z,0.83
2018-12-12T06:34:55.493Z,0.53
2018-12-12T06:37:27.871Z,1.37
2018-12-12T06:40:00.461Z,0.50
2018-12-12T06:42:32.175Z,0.67
2018-12-12T06:45:05.177Z,0.70
2018-12-12T06:47:37.567Z,0.60
2018-12-12T06:50:10.041Z,0.60
2018-12-12T06:52:42.051Z,0.80
2018-12-12T06:55:14.362Z,0.80
2018-12-12T06:57:46.389Z,0.80
2018-12-12T07:00:18.648Z,0.50
2018-12-12T07:02:52.801Z,0.80
2018-12-12T07:05:24.521Z,0.80
2018-12-12T07:07:56.407Z,0.90
2018-12-12T07:10:28.409Z,0.70
2018-12-12T07:13:00.491Z,0.80
2018-12-12T07:15:32.799Z,0.43
2018-12-12T07:18:04.727Z,0.80
2018-12-12T07:20:37.201Z,0.50
2018-12-12T07:23:11.845Z,1.10
2018-12-12T07:25:44.617Z,0.67
2018-12-12T07:28:17.106Z,0.60
2018-12-12T07:30:49.201Z,1.23
2018-12-12T07:33:21.397Z,0.50
2018-12-12T07:35:59.466Z,0.80
2018-12-12T07:38:28.737Z,0.60
2018-12-12T07:41:00.783Z,0.73
2018-12-12T07:43:32.872Z,0.50
2018-12-12T07:46:05.363Z,0.63
2018-12-12T07:48:37.624Z,0.63
2018-12-12T07:51:09.625Z,0.63
2018-12-12T07:53:41.698Z,0.60
2018-12-12T07:56:14.149Z,0.80
2018-12-12T07:58:46.339Z,0.40
2018-12-12T08:01:19.114Z,0.67
2018-12-12T08:03:51.801Z,0.60
2018-12-12T08:06:24.499Z,0.73
2018-12-12T08:08:56.809Z,0.53
2018-12-12T08:11:29.203Z,0.70
2018-12-12T08:14:01.433Z,0.87
2018-12-12T08:16:33.903Z,0.50
2018-12-12T08:19:05.823Z,0.83
2018-12-12T08:21:38.094Z,0.47
2018-12-12T08:24:10.012Z,1.50
2018-12-12T08:26:42.547Z,0.50
2018-12-12T08:29:14.505Z,0.87
2018-12-12T08:31:46.678Z,0.50
2018-12-12T08:34:18.723Z,0.60
2018-12-12T08:36:50.565Z,0.33
2018-12-12T08:39:22.600Z,0.40
2018-12-12T08:41:55.862Z,0.30
2018-12-12T08:44:28.329Z,0.40
2018-12-12T08:46:58.420Z,0.40
2018-12-12T08:49:30.879Z,0.40
2018-12-12T08:52:07.201Z,0.57
2018-12-12T08:54:39.118Z,0.70
2018-12-12T08:57:11.731Z,0.40
2018-12-12T08:59:43.623Z,0.30
2018-12-12T09:02:15.814Z,0.43
2018-12-12T09:04:46.325Z,0.50
2018-12-12T09:07:18.823Z,0.40
2018-12-12T09:09:50.714Z,0.50
2018-12-12T09:12:25.046Z,0.60
2018-12-12T09:14:57.774Z,0.80
2018-12-12T09:17:30.299Z,0.40
2018-12-12T09:20:00.419Z,0.40
2018-12-12T09:22:32.761Z,0.43
2018-12-12T09:25:05.080Z,0.80
2018-12-12T09:27:37.836Z,1.17
2018-12-12T09:30:10.197Z,0.50
2018-12-12T09:32:44.540Z,0.37
2018-12-12T09:35:17.264Z,1.00
2018-12-12T09:37:49.518Z,0.37
2018-12-12T09:40:21.715Z,0.40
2018-12-12T09:42:54.257Z,0.70
2018-12-12T09:45:26.137Z,0.50
2018-12-12T09:47:58.541Z,0.30
2018-12-12T09:50:30.872Z,0.53
2018-12-12T09:53:03.007Z,0.70
2018-12-12T09:55:35.479Z,0.40
2018-12-12T09:58:09.169Z,0.80
2018-12-12T10:00:40.821Z,0.60
2018-12-12T10:03:13.105Z,0.50
2018-12-12T10:20:58.521Z,0.70
2018-12-12T10:23:30.697Z,1.13
2018-12-12T10:26:08.232Z,0.53
2018-12-12T10:28:40.191Z,1.23
2018-12-12T10:31:12.508Z,0.50
2018-12-12T10:33:44.947Z,0.70
2018-12-12T10:36:17.331Z,0.60
2018-12-12T10:38:49.543Z,0.50
2018-12-12T10:41:22.327Z,0.57
2018-12-12T10:43:54.798Z,0.53
2018-12-12T10:46:27.009Z,0.40
2018-12-12T10:48:59.441Z,1.13
2018-12-12T10:51:29.691Z,1.13
2018-12-12T10:54:01.819Z,0.63
2018-12-12T10:56:33.869Z,0.63
2018-12-12T10:59:06.098Z,0.70
2018-12-12T11:01:43.586Z,0.50
2018-12-12T11:04:16.427Z,0.60
2018-12-12T11:06:48.678Z,0.60
2018-12-12T11:09:20.875Z,0.80
2018-12-12T11:11:53.249Z,0.70
2018-12-12T11:14:25.525Z,0.40
2018-12-12T11:16:58.085Z,0.50
2018-12-12T11:19:32.350Z,1.00
2018-12-12T11:27:09.225Z,0.57
2018-12-12T11:29:41.569Z,0.60
2018-12-12T11:32:13.945Z,1.60
2018-12-12T11:34:46.343Z,0.53
2018-12-12T11:37:18.427Z,1.13
2018-12-12T11:39:50.701Z,1.00
2018-12-12T11:42:23.017Z,0.67
2018-12-12T11:44:55.551Z,0.60
2018-12-12T11:47:30.073Z,0.87
2018-12-12T11:50:02.051Z,1.63
2018-12-12T11:52:34.210Z,1.23
2018-12-12T11:55:06.582Z,1.50
2018-12-12T11:57:39.025Z,0.90
2018-12-12T12:00:11.521Z,0.80
2018-12-12T12:02:43.632Z,1.00
2018-12-12T12:05:15.589Z,0.90
2018-12-12T12:07:47.685Z,0.60
2018-12-12T12:10:19.720Z,0.67
2018-12-12T12:12:54.410Z,0.60
2018-12-12T12:15:26.052Z,1.00
2018-12-12T12:17:58.264Z,0.70
2018-12-12T12:20:36.758Z,0.70
2018-12-12T12:23:10.622Z,0.93
2018-12-12T12:25:42.733Z,0.63
2018-12-12T12:38:30.077Z,0.67
2018-12-12T12:41:02.672Z,0.50
2018-12-12T12:43:37.223Z,0.77
2018-12-12T12:46:11.472Z,1.10
2018-12-12T12:48:45.821Z,0.77
2018-12-12T12:51:17.612Z,0.77
2018-12-12T12:53:52.186Z,0.70
2018-12-12T12:56:24.860Z,0.60
2018-12-12T12:58:57.246Z,0.80
2018-12-12T13:01:29.587Z,1.07
2018-12-12T13:04:09.493Z,1.37
2018-12-12T13:06:39.025Z,1.00
2018-12-12T13:09:11.798Z,0.57
2018-12-12T13:11:43.920Z,1.23
2018-12-12T13:14:18.310Z,0.70
2018-12-12T13:16:50.335Z,0.97
2018-12-12T13:19:22.647Z,1.50
2018-12-12T13:21:56.986Z,0.60
2018-12-12T13:24:29.001Z,0.97
2018-12-12T13:27:01.018Z,0.90
2018-12-12T13:29:33.187Z,1.50
2018-12-12T13:32:06.732Z,0.90
2018-12-12T13:34:39.150Z,1.00
2018-12-12T13:37:11.756Z,1.10
2018-12-12T13:39:43.813Z,1.03
2018-12-12T13:42:16.091Z,0.60
2018-12-12T13:44:48.332Z,0.60
2018-12-12T13:47:20.731Z,1.00
2018-12-12T13:49:55.182Z,1.20
2018-12-12T13:52:28.245Z,0.70
2018-12-12T13:55:00.359Z,1.03
2018-12-12T13:57:32.959Z,0.97
2018-12-12T14:00:06.045Z,0.77
2018-12-12T14:02:40.519Z,0.70
2018-12-12T14:05:13.477Z,0.67
2018-12-12T14:07:46.287Z,0.53
2018-12-12T14:10:18.487Z,0.80
2018-12-12T14:12:50.505Z,0.53
2018-12-12T14:15:24.906Z,0.60
2018-12-12T14:18:02.057Z,0.67
2018-12-12T14:20:34.525Z,0.93
2018-12-12T14:23:06.956Z,1.23
2018-12-12T14:25:39.317Z,0.87
2018-12-12T14:28:11.495Z,1.50
2018-12-12T14:30:45.897Z,1.00
2018-12-12T14:33:18.907Z,0.73
2018-12-12T14:49:18.546Z,0.80
2018-12-12T14:52:02.349Z,0.83
2018-12-12T14:54:39.547Z,0.77
2018-12-12T14:57:21.922Z,1.03
2018-12-12T14:59:58.767Z,0.90
2018-12-12T15:02:35.527Z,1.20
2018-12-12T15:05:15.189Z,1.00
2018-12-12T15:07:48.034Z,0.73
2018-12-12T15:10:22.736Z,0.77
2018-12-12T15:13:03.331Z,1.77
2018-12-12T15:15:46.802Z,1.03
2018-12-12T15:18:20.323Z,1.20
2018-12-12T15:21:01.406Z,1.60
2018-12-12T15:23:37.537Z,1.17
2018-12-12T15:26:13.783Z,0.87
2018-12-12T15:28:52.447Z,0.90
2018-12-12T15:31:32.583Z,0.83
2018-12-12T15:34:27.441Z,0.93
2018-12-12T15:37:13.873Z,1.57
2018-12-12T15:40:07.931Z,1.43
2018-12-12T15:42:58.822Z,1.57
2018-12-12T15:45:55.794Z,2.13
2018-12-12T16:14:53.507Z,1.03
2018-12-12T16:17:40.429Z,1.37
2018-12-12T16:26:27.412Z,1.37
2018-12-12T16:29:08.373Z,1.67
2018-12-12T16:32:05.326Z,1.33
2018-12-12T16:37:37.455Z,1.20
2018-12-12T16:40:17.411Z,0.80
2018-12-12T16:43:10.130Z,0.70
2018-12-12T16:45:54.384Z,0.90
2018-12-12T16:48:37.735Z,1.10
2018-12-12T16:51:21.983Z,0.90
2018-12-12T16:54:10.033Z,0.80
2018-12-12T16:56:44.314Z,1.23
2018-12-12T16:59:23.540Z,1.30
2018-12-12T17:02:04.582Z,2.00
2018-12-12T17:04:37.698Z,1.63
2018-12-12T17:07:09.746Z,1.13
2018-12-12T17:09:50.690Z,1.30
2018-12-12T17:12:25.469Z,3.37
2018-12-12T17:14:58.628Z,3.93
2018-12-12T17:17:31.002Z,4.00
2018-12-12T17:20:05.702Z,1.40
2018-12-12T17:22:48.089Z,1.13
2018-12-12T17:25:23.494Z,1.17
2018-12-12T17:27:58.622Z,1.00
2018-12-12T17:30:35.839Z,0.83
2018-12-12T17:33:08.421Z,1.43
2018-12-12T17:35:43.028Z,1.17
2018-12-12T17:38:22.261Z,1.67
2018-12-12T17:41:10.142Z,3.17
2018-12-12T17:43:44.657Z,1.23
2018-12-12T17:46:19.994Z,1.80
2018-12-12T17:48:53.307Z,1.07
2018-12-12T17:51:27.799Z,1.80
2018-12-12T17:54:14.618Z,1.90
2018-12-12T17:56:49.768Z,1.27
2018-12-12T17:59:21.842Z,0.83
2018-12-12T18:01:56.448Z,1.27
2018-12-12T18:04:33.381Z,1.93
2018-12-12T18:07:10.380Z,1.27
2018-12-12T18:09:50.450Z,1.53
2018-12-12T18:12:24.156Z,1.33
2018-12-12T18:15:07.548Z,1.07
2018-12-12T18:17:40.669Z,1.30
2018-12-12T18:20:15.192Z,1.20
2018-12-12T18:22:49.546Z,1.23
2018-12-12T18:25:30.339Z,0.70
2018-12-12T18:28:13.530Z,0.57
2018-12-12T18:30:49.870Z,1.20
2018-12-12T18:33:30.718Z,1.03
2018-12-12T18:36:11.607Z,1.00
2018-12-12T18:38:50.018Z,1.07
2018-12-12T18:41:22.427Z,0.67
2018-12-12T18:43:54.843Z,0.87
2018-12-12T18:46:26.752Z,1.53
2018-12-12T18:48:59.854Z,2.13
2018-12-12T18:51:32.650Z,0.77
2018-12-12T18:54:05.064Z,1.37
2018-12-12T18:56:37.226Z,1.73
2018-12-12T18:59:09.183Z,1.00
2018-12-12T19:01:41.266Z,1.70
2018-12-12T19:04:13.500Z,2.60
2018-12-12T19:06:45.876Z,1.13
2018-12-12T19:09:20.126Z,1.93
2018-12-12T19:11:54.398Z,1.83
2018-12-12T19:14:26.511Z,1.40
2018-12-12T19:16:58.944Z,1.23
2018-12-12T19:19:33.305Z,2.30
2018-12-12T19:22:06.381Z,1.97
2018-12-12T19:24:38.445Z,2.20
2018-12-12T19:27:10.809Z,2.23
2018-12-12T19:29:42.977Z,1.40
2018-12-12T19:32:15.197Z,1.17
2018-12-12T19:34:49.912Z,2.27
2018-12-12T19:37:20.695Z,1.03
2018-12-12T19:39:55.131Z,1.00
2018-12-12T19:42:27.796Z,1.87
2018-12-12T19:45:00.123Z,2.27
2018-12-12T19:47:32.167Z,1.07
2018-12-12T19:50:06.907Z,0.83
2018-12-12T19:52:39.489Z,2.23
2018-12-12T19:55:13.673Z,1.60
2018-12-12T19:57:46.154Z,1.80
2018-12-12T20:00:17.981Z,1.27
2018-12-12T20:02:52.394Z,1.50
2018-12-12T20:05:24.456Z,1.43
2018-12-12T20:07:56.638Z,1.57
2018-12-12T20:10:28.780Z,0.83
2018-12-12T20:13:03.021Z,1.00
2018-12-12T20:15:40.857Z,1.47
2018-12-12T20:18:12.770Z,1.07
2018-12-12T20:20:45.133Z,1.50
2018-12-12T20:23:17.551Z,2.90
2018-12-12T20:25:49.711Z,1.00
2018-12-12T20:28:22.051Z,1.27
2018-12-12T20:30:54.323Z,1.37
2018-12-12T20:33:26.347Z,1.50
2018-12-12T20:36:00.484Z,1.50
2018-12-12T20:38:34.784Z,1.13
2018-12-12T20:41:06.747Z,1.20
2018-12-12T20:43:38.737Z,1.27
2018-12-12T20:46:12.785Z,2.03
2018-12-12T20:48:45.262Z,2.80
2018-12-12T20:51:17.420Z,0.73
2018-12-12T20:53:49.383Z,1.90
2018-12-12T20:56:21.249Z,1.83
2018-12-12T20:58:55.477Z,1.10
2018-12-12T21:01:27.887Z,0.97
2018-12-12T21:04:03.603Z,1.50
2018-12-12T21:06:35.597Z,1.47
2018-12-12T21:09:09.582Z,2.13
2018-12-12T21:11:43.960Z,1.23
2018-12-12T21:14:16.566Z,1.20
2018-12-12T21:16:49.257Z,1.17
2018-12-12T21:19:21.281Z,1.37
2018-12-12T21:21:53.075Z,1.67
2018-12-12T21:24:25.453Z,1.57
2018-12-12T21:26:59.753Z,1.53
2018-12-12T21:29:32.410Z,1.00
2018-12-12T21:32:04.651Z,1.50
2018-12-12T21:34:36.945Z,2.27
2018-12-12T21:37:15.022Z,1.13
2018-12-12T21:39:47.855Z,1.70
2018-12-12T21:42:20.142Z,1.50
2018-12-12T21:44:58.531Z,1.53
2018-12-12T21:47:35.371Z,1.67
2018-12-12T21:50:09.075Z,2.43
2018-12-12T21:52:47.543Z,1.83
2018-12-12T21:55:19.599Z,1.33
2018-12-12T21:57:52.109Z,1.97
2018-12-12T22:00:23.129Z,1.40
2018-12-12T22:02:57.370Z,2.20
2018-12-12T22:05:33.375Z,2.83
2018-12-12T22:08:13.927Z,1.60
2018-12-12T22:10:46.257Z,1.53
2018-12-12T22:13:22.551Z,1.90
2018-12-12T22:15:55.475Z,2.33
2018-12-12T22:18:30.297Z,1.33
2018-12-12T22:21:06.551Z,2.63
2018-12-12T22:23:42.954Z,1.93
2018-12-12T22:26:15.050Z,1.80
2018-12-12T22:28:46.872Z,1.43
2018-12-12T22:31:20.102Z,1.40
2018-12-12T22:33:54.472Z,1.93
2018-12-12T22:36:27.121Z,2.30
2018-12-12T22:38:59.553Z,1.23
2018-12-12T22:41:33.751Z,1.47
2018-12-12T22:44:06.578Z,1.50
2018-12-12T22:46:38.589Z,1.80
2018-12-12T22:49:10.949Z,2.20
2018-12-12T22:51:43.858Z,1.60
2018-12-12T22:54:16.174Z,1.60
2018-12-12T22:56:48.016Z,1.40
2018-12-12T22:59:23.032Z,1.50
2018-12-12T23:01:55.934Z,2.47
2018-12-12T23:04:27.744Z,2.23
2018-12-12T23:06:59.757Z,1.37
2018-12-12T23:09:31.926Z,1.80
2018-12-12T23:12:07.170Z,3.07
2018-12-12T23:14:41.398Z,1.93
2018-12-12T23:17:15.685Z,1.97
2018-12-12T23:19:51.762Z,4.10
2018-12-12T23:22:32.930Z,1.90
2018-12-12T23:25:08.506Z,3.10
2018-12-12T23:27:41.179Z,2.27
2018-12-12T23:30:21.782Z,2.70
2018-12-12T23:32:54.124Z,2.80
2018-12-12T23:35:27.419Z,2.40
2018-12-12T23:37:59.194Z,3.27
2018-12-12T23:40:42.729Z,2.63
2018-12-12T23:43:20.140Z,2.53
2018-12-12T23:45:52.397Z,3.87
2018-12-12T23:48:25.017Z,3.60
2018-12-12T23:50:57.481Z,2.70
2018-12-12T23:53:30.187Z,5.40
2018-12-12T23:56:05.847Z,3.13
2018-12-12T23:58:44.153Z,3.90
